• Join FlightAware (Why Join?)
  • Login
  • US Flag 
10:12AM EDT


 

Airport Tracker/Info


-or-


 

Live Flight TrackerFlight Track Log ✈ CES5545 ✈ 05-Sep-2014 ✈ ZSSS / SHA - ZSYT / YNT

Flight Track Log - Related Links

Times and Time Zones

All times are in EDT time to prevent confusion due to time zone crossing. See the CES5545 flight status page for this flight to view local times or setup timezone preferences in your user account.

Time Position Orientation Groundspeed Altitude Reporting Facility
EDT Latitude Longitude Course Direction KTS MPH feet Rate Location/Type
04:39AM 31.1778 121.3329 178° South 160 184 1,200  Level FlightAware ADS-B (ZSSS / SHA)
04:39AM 31.1645 121.3336 176° South 155 178 2,100 2,280 Climbing FlightAware ADS-B (ZSSS / SHA)
04:39AM 31.1503 121.3345 175° South 163 188 2,700 1,860 Climbing FlightAware ADS-B (ZSSS / SHA)
04:40AM 31.1370 121.3356 176° South 166 191 3,200 1,500 Climbing FlightAware ADS-B (ZSSS / SHA)
04:40AM 31.1256 121.3364 177° South 176 203 3,500 960 Climbing FlightAware ADS-B (ZSSS / SHA)
04:40AM 31.1122 121.3371 177° South 201 231 3,700 780 Climbing FlightAware ADS-B (ZSSS / SHA)
04:40AM 31.0975 121.3378 177° South 221 254 3,900 780 Climbing FlightAware ADS-B (ZSSS / SHA)
04:41AM 31.0808 121.3381 184° South 249 287 4,100 1,200 Climbing FlightAware ADS-B (ZSSS / SHA)
04:41AM 31.0632 121.3318 211° Southwest 271 312 4,500 1,560 Climbing FlightAware ADS-B (ZSSS / SHA)
04:41AM 31.0514 121.3197 232° Southwest 275 316 4,900 900 Climbing FlightAware ADS-B (ZSSS / SHA)
04:41AM 31.0431 121.2942 264° West 266 306 5,000 600 Climbing FlightAware ADS-B (ZSSL)
04:42AM 31.0471 121.2608 281° West 264 304 5,300 1,680 Climbing FlightAware ADS-B (ZSSS / SHA)
04:42AM 31.0507 121.2382 281° West 268 308 6,100 3,480 Climbing FlightAware ADS-B (ZSSS / SHA)
04:42AM 31.0550 121.2105 281° West 265 305 7,400 3,360 Climbing FlightAware ADS-B (ZSSL)
04:43AM 31.0592 121.1833 281° West 269 310 8,400 2,520 Climbing FlightAware ADS-B (ZSSL)
04:43AM 31.0649 121.1566 294° West 280 322 9,000 1,740 Climbing FlightAware ADS-B (ZSSS / SHA)
04:44AM 31.1630 121.1207 358° North 349 402 11,100 1,380 Climbing FlightAware ADS-B (ZSSS / SHA)
04:45AM 31.2159 121.1175 359° North 381 438 11,500 540 Climbing FlightAware ADS-B (ZSSS / SHA)
04:45AM 31.2883 121.1171 360° North 388 447 11,800 300 Climbing FlightAware ADS-B (ZSSL)
04:46AM 31.3229 121.1170 North 390 449 11,800 300 Level FlightAware ADS-B (ZSSS / SHA)
04:46AM 31.3872 121.1168 North 394 453 12,100 1,440 Climbing FlightAware ADS-B (ZSSS / SHA)
04:47AM 31.4861 121.0971 North 395 455 14,000 2,040 Climbing FlightAware ADS-B (ZSSS / SHA)
04:47AM 31.5120 121.0836 336° Northwest 398 458 14,600 1,860 Climbing FlightAware ADS-B (ZSSL)
04:48AM 31.5766 121.0495 336° Northwest 404 465 15,800 300 Climbing FlightAware ADS-B (ZSSL)
05:26AM 35.3597 119.7561 74° East 462 532 28,000 300 Climbing FlightAware ADS-B (ZSQD / TAO)
05:26AM 35.3844 119.8273 54° Northeast 461 531 27,600 -1,200 Descending FlightAware ADS-B (ZSQD / TAO)
05:26AM 35.4231 119.8838 42° Northeast 457 526 27,200 -960 Descending FlightAware ADS-B (ZSQD / TAO)
05:27AM 35.4692 119.9309 39° Northeast 451 519 26,800 -720 Descending FlightAware ADS-B (ZSQD / TAO)
05:27AM 35.5188 119.9812 39° Northeast 452 520 26,500 -720 Descending FlightAware ADS-B (ZSQD / TAO)
05:28AM 35.5673 120.0303 39° Northeast 443 510 26,100 -960 Descending FlightAware ADS-B (ZSQD / TAO)
05:28AM 35.6148 120.0785 39° Northeast 442 509 25,600 -1,020 Descending FlightAware ADS-B (ZSQD / TAO)
05:29AM 35.6615 120.1259 39° Northeast 455 524 25,100 -1,020 Descending FlightAware ADS-B (ZSQD / TAO)
05:29AM 35.7097 120.1750 39° Northeast 456 525 24,600 -900 Descending FlightAware ADS-B (ZSQD / TAO)
05:30AM 35.7591 120.2254 39° Northeast 450 518 24,200 -960 Descending FlightAware ADS-B (ZSQD / TAO)
05:30AM 35.8077 120.2750 39° Northeast 441 507 23,700 -1,020 Descending FlightAware ADS-B (ZSQD / TAO)
05:31AM 35.8526 120.3210 39° Northeast 430 495 23,200 -900 Descending FlightAware ADS-B (ZSQD / TAO)
05:31AM 35.8988 120.3683 39° Northeast 425 489 22,800 -720 Descending FlightAware ADS-B (ZSQD / TAO)
05:32AM 35.9319 120.3931 23° Northeast 426 490 22,600 -180 Descending FlightAware ADS-B (ZSQD / TAO)
05:33AM 36.0294 120.4196 10° North 431 496 22,600  Level FlightAware ADS-B (ZSQD / TAO)
05:33AM 36.0893 120.4336 10° North 434 499 22,600  Level FlightAware ADS-B (ZSQD / TAO)
05:34AM 36.1482 120.4472 10° North 434 499 22,600  Level FlightAware ADS-B (ZSQD / TAO)
05:34AM 36.2052 120.4604 10° North 434 499 22,600  Level FlightAware ADS-B (ZSQD / TAO)
05:35AM 36.2670 120.4747 10° North 435 501 22,600  Level FlightAware ADS-B (ZSQD / TAO)
05:35AM 36.3254 120.4882 10° North 424 488 22,600  Level FlightAware ADS-B (ZSQD / TAO)
05:36AM 36.4093 120.5078 10° North 407 468 22,600  Level FlightAware ADS-B (ZSQD / TAO)
05:36AM 36.4656 120.5209 10° North 410 472 22,600  Level FlightAware ADS-B (ZSQD / TAO)
05:37AM 36.5228 120.5342 10° North 412 474 22,600  Level FlightAware ADS-B (ZSQD / TAO)
05:37AM 36.5765 120.5467 10° North 414 476 22,600 -120 Level FlightAware ADS-B (ZSQD / TAO)
05:38AM 36.6350 120.5603 10° North 415 478 22,500 -840 Descending FlightAware ADS-B (ZSQD / TAO)
05:38AM 36.6913 120.5747 16° North 412 474 21,800 -2,160 Descending FlightAware ADS-B (ZSQD / TAO)
05:39AM 36.7263 120.5939 30° Northeast 418 481 20,700 -3,720 Descending FlightAware ADS-B (ZSQD / TAO)
05:39AM 36.7758 120.6329 32° Northeast 434 499 18,800 -3,540 Descending FlightAware ADS-B (ZSQD / TAO)
05:40AM 36.8274 120.6742 32° Northeast 438 504 17,200 -3,480 Descending FlightAware ADS-B (ZSQD / TAO)
05:40AM 36.8776 120.7144 32° Northeast 423 487 15,300 -3,600 Descending FlightAware ADS-B (ZSQD / TAO)
05:41AM 36.9263 120.7533 32° Northeast 403 464 13,600 -2,640 Descending FlightAware ADS-B (ZSQD / TAO)
05:41AM 36.9704 120.7887 32° Northeast 369 425 12,700 -1,620 Descending FlightAware ADS-B (ZSQD / TAO)
05:42AM 37.0139 120.8198 25° Northeast 336 387 12,000 -2,040 Descending FlightAware ADS-B (ZSQD / TAO)
05:42AM 37.0551 120.8447 25° Northeast 328 377 10,700 -2,040 Descending FlightAware ADS-B (ZSQD / TAO)
05:43AM 37.0946 120.8685 25° Northeast 304 350 10,000 -2,160 Descending FlightAware ADS-B (ZSQD / TAO)
05:43AM 37.1316 120.8911 26° Northeast 296 341 8,600 -2,940 Descending FlightAware ADS-B (ZSQD / TAO)
05:46AM 37.2053 121.0216 55° Northeast  Level Estimated
05:47AM 37.2362 121.0764 55° Northeast  Level Estimated
05:48AM 37.2671 121.1313 55° Northeast  Level Estimated
05:49AM 37.2979 121.1862 55° Northeast  Level Estimated
05:50AM 37.3287 121.2411 55° Northeast  Level Estimated
05:51AM 37.3595 121.2961 55° Northeast  Level Estimated
05:52AM 37.3902 121.3512 55° Northeast  Level Estimated
05:53AM 37.4017 121.3717 55° Northeast  Level Estimated
05:54AM 37.4017 121.3717 North  Level Estimated
05:55AM 37.4017 121.3717 North  Level Estimated
05:56AM 37.4017 121.3717 North  Level Estimated
05:57AM 37.4017 121.3717 North  Level Estimated
05:58AM 37.4017 121.3717 North  Level Estimated
05:59AM 37.4017 121.3717 North  Level Estimated
06:00AM 37.4017 121.3717 North  Level Estimated
06:01AM 37.4017 121.3717 North  Level Estimated
06:02AM 37.4017 121.3717 North  Level Estimated
06:03AM 37.4017 121.3717 North  Level Estimated
06:04AM 37.4017 121.3717 North  Level Estimated
06:05AM 37.4017 121.3717 North  Level Estimated
06:06AM 37.4017 121.3717 North  Level Estimated
06:07AM 37.4017 121.3717 North  Level Estimated
06:08AM 37.4017 121.3717 North  Level Estimated
06:09AM 37.4017 121.3717 North  Level Estimated
06:10AM 37.4017 121.3717 North  Level Estimated
06:11AM 37.4017 121.3717 North  Level Estimated
06:12AM 37.4017 121.3717 North  Level Estimated
06:13AM 37.4017 121.3717 North  Level Estimated
06:14AM 37.4017 121.3717 North  Level Estimated
06:15AM 37.4017 121.3717 North  Level Estimated
06:16AM 37.4017 121.3717 North  Level Estimated
06:17AM 37.4017 121.3717 North  Level Estimated
06:18AM 37.4017 121.3717 North  Level Estimated
06:19AM 37.4017 121.3717 North  Level Estimated
06:20AM 37.4017 121.3717 North  Level Estimated
06:21AM 37.4017 121.3717 North  Level Estimated
06:22AM 37.4017 121.3717 North  Level Estimated
06:23AM 37.4017 121.3717 North  Level Estimated
06:24AM 37.4017 121.3717 North  Level Estimated
06:25AM 37.4017 121.3717 North  Level Estimated
06:26AM 37.4017 121.3717 North  Level Estimated
06:27AM 37.4017 121.3717 North  Level Estimated
06:28AM 37.4017 121.3717 North  Level Estimated
06:29AM 37.4017 121.3717 North  Level Estimated
06:30AM 37.4017 121.3717 North  Level Estimated
06:31AM 37.4017 121.3717 North  Level Estimated
06:32AM 37.4017 121.3717 North  Level Estimated
06:33AM 37.4017 121.3717 North  Level Estimated
06:34AM 37.4017 121.3717 North  Level Estimated
06:35AM 37.4017 121.3717 North  Level Estimated
06:36AM 37.4017 121.3717 North  Level Estimated
06:37AM 37.4017 121.3717 North  Level Estimated